createdAt,value
2018-11-01T00:02:27.842Z,8.70
2018-11-01T00:05:00.437Z,8.80
2018-11-01T00:07:31.978Z,8.80
2018-11-01T00:10:04.896Z,8.80
2018-11-01T00:12:40.626Z,8.80
2018-11-01T00:15:15.729Z,8.80
2018-11-01T00:17:49.861Z,8.70
2018-11-01T00:20:21.979Z,8.70
2018-11-01T00:22:57.969Z,8.60
2018-11-01T00:25:34.640Z,8.60
2018-11-01T00:28:06.765Z,8.60
2018-11-01T00:30:38.924Z,8.50
2018-11-01T00:33:12.731Z,8.50
2018-11-01T00:38:20.584Z,8.30
2018-11-01T00:40:54.307Z,8.20
2018-11-01T00:43:27.246Z,8.20
2018-11-01T00:45:59.620Z,8.20
2018-11-01T00:48:32.164Z,8.20
2018-11-01T00:51:05.595Z,8.10
2018-11-01T00:53:40.273Z,8.10
2018-11-01T00:56:12.799Z,8.20
2018-11-01T00:58:49.017Z,8.10
2018-11-01T01:01:24.035Z,8.10
2018-11-01T01:03:56.465Z,8.10
2018-11-01T01:06:30.039Z,8.10
2018-11-01T01:09:03.054Z,8.10
2018-11-01T01:14:20.259Z,8.20
2018-11-01T01:16:56.397Z,8.10
2018-11-01T01:19:30.937Z,8.00
2018-11-01T01:22:07.306Z,8.00
2018-11-01T01:24:39.289Z,8.00
2018-11-01T01:27:13.944Z,8.00
2018-11-01T01:29:47.913Z,8.00
2018-11-01T01:34:58.211Z,8.00
2018-11-01T01:37:30.951Z,7.90
2018-11-01T01:40:03.239Z,7.70
2018-11-01T01:42:39.426Z,7.60
2018-11-01T01:45:13.118Z,7.50
2018-11-01T01:47:46.500Z,7.50
2018-11-01T01:50:20.641Z,7.60
2018-11-01T01:55:30.543Z,7.60
2018-11-01T01:58:04.252Z,7.60
2018-11-01T02:00:37.871Z,7.60
2018-11-01T02:03:11.432Z,7.60
2018-11-01T02:05:44.440Z,7.50
2018-11-01T02:08:17.015Z,7.50
2018-11-01T02:10:49.207Z,7.00
2018-11-01T02:13:23.833Z,7.00
2018-11-01T02:15:56.906Z,7.00
2018-11-01T02:18:30.001Z,7.10
2018-11-01T02:21:04.378Z,7.10
2018-11-01T02:23:38.542Z,7.00
2018-11-01T02:26:12.038Z,7.00
2018-11-01T02:31:29.895Z,6.90
2018-11-01T02:34:05.480Z,6.80
2018-11-01T02:36:37.233Z,6.70
2018-11-01T02:39:17.547Z,6.60
2018-11-01T02:41:49.578Z,6.50
2018-11-01T02:44:22.691Z,6.50
2018-11-01T02:46:56.656Z,6.50
2018-11-01T02:49:29.728Z,6.50
2018-11-01T02:52:03.043Z,6.50
2018-11-01T02:54:36.848Z,6.50
2018-11-01T02:57:09.775Z,6.50
2018-11-01T02:59:42.003Z,6.50
2018-11-01T03:02:15.040Z,6.60
2018-11-01T03:04:49.394Z,6.60
2018-11-01T03:07:21.635Z,6.60
2018-11-01T03:09:53.759Z,6.60
2018-11-01T03:12:26.308Z,6.60
2018-11-01T03:14:58.226Z,6.60
2018-11-01T03:20:10.420Z,6.70
2018-11-01T03:22:43.711Z,6.70
2018-11-01T03:25:17.971Z,6.70
2018-11-01T03:27:51.940Z,6.80
2018-11-01T03:30:29.743Z,6.80
2018-11-01T03:33:02.508Z,6.80
2018-11-01T03:35:36.106Z,6.80
2018-11-01T03:38:11.120Z,6.80
2018-11-01T03:40:43.585Z,6.80
2018-11-01T03:43:17.058Z,6.80
2018-11-01T03:45:50.531Z,6.70
2018-11-01T03:48:26.943Z,6.70
2018-11-01T03:50:59.621Z,6.70
2018-11-01T03:53:33.036Z,6.60
2018-11-01T03:56:06.920Z,6.60
2018-11-01T03:58:40.761Z,6.60
2018-11-01T04:01:13.102Z,6.60
2018-11-01T04:03:46.270Z,6.60
2018-11-01T04:06:19.763Z,6.60
2018-11-01T04:11:28.637Z,6.60
2018-11-01T04:14:03.090Z,6.60
2018-11-01T04:16:34.791Z,6.60
2018-11-01T04:19:08.520Z,6.70
2018-11-01T04:21:41.932Z,6.60
2018-11-01T04:24:14.656Z,6.60
2018-11-01T04:26:47.254Z,6.60
2018-11-01T04:29:20.124Z,6.60
2018-11-01T04:31:53.179Z,6.50
2018-11-01T04:34:25.933Z,6.50
2018-11-01T04:36:58.551Z,6.40
2018-11-01T04:39:31.282Z,6.40
2018-11-01T04:42:03.836Z,6.30
2018-11-01T04:44:36.800Z,6.30
2018-11-01T04:47:09.426Z,6.30
2018-11-01T04:52:18.071Z,6.40
2018-11-01T04:54:52.088Z,6.30
2018-11-01T04:57:24.724Z,6.40
2018-11-01T05:00:00.948Z,6.40
2018-11-01T05:02:34.882Z,6.40
2018-11-01T05:05:10.181Z,6.40
2018-11-01T05:07:42.789Z,6.40
2018-11-01T05:10:15.489Z,6.40
2018-11-01T05:12:49.665Z,6.40
2018-11-01T05:15:21.539Z,6.50
2018-11-01T05:17:54.387Z,6.50
2018-11-01T05:20:38.505Z,6.50
2018-11-01T05:23:11.438Z,6.50
2018-11-01T05:25:44.187Z,6.60
2018-11-01T05:28:16.628Z,6.60
2018-11-01T05:30:50.930Z,6.60
2018-11-01T05:37:04.536Z,6.60
2018-11-01T05:39:36.789Z,6.60
2018-11-01T05:42:09.821Z,6.60
2018-11-01T05:44:41.998Z,6.70
2018-11-01T05:47:16.078Z,6.70
2018-11-01T05:49:49.003Z,6.80
2018-11-01T05:52:21.681Z,6.80
2018-11-01T05:54:57.371Z,6.90
2018-11-01T05:57:30.317Z,6.90
2018-11-01T06:00:04.658Z,7.00
2018-11-01T06:02:42.565Z,7.10
2018-11-01T06:05:15.482Z,7.10
2018-11-01T06:07:58.869Z,7.20
2018-11-01T06:10:32.632Z,7.30
2018-11-01T06:13:05.796Z,7.30
2018-11-01T06:15:44.329Z,7.40
2018-11-01T06:18:18.385Z,7.40
2018-11-01T06:20:52.075Z,7.50
2018-11-01T06:23:26.299Z,7.60
2018-11-01T06:28:36.226Z,7.70
2018-11-01T06:33:44.812Z,7.90
2018-11-01T06:36:17.555Z,7.90
2018-11-01T06:38:49.865Z,8.00
2018-11-01T06:41:22.856Z,8.00
2018-11-01T06:43:57.845Z,8.00
2018-11-01T06:46:32.206Z,8.10
2018-11-01T06:49:06.786Z,8.10
2018-11-01T06:51:40.729Z,8.10
2018-11-01T06:54:18.483Z,8.10
2018-11-01T06:56:52.251Z,8.10
2018-11-01T06:59:28.526Z,8.20
2018-11-01T07:02:04.129Z,8.20
2018-11-01T07:04:36.948Z,8.30
2018-11-01T07:07:09.200Z,8.40
2018-11-01T07:09:42.279Z,8.40
2018-11-01T07:12:15.668Z,8.50
2018-11-01T07:17:24.678Z,8.60
2018-11-01T07:19:57.660Z,8.70
2018-11-01T07:22:30.092Z,8.80
2018-11-01T07:25:02.572Z,8.90
2018-11-01T07:27:36.276Z,8.90
2018-11-01T07:30:13.056Z,9.00
2018-11-01T07:32:45.337Z,9.10
2018-11-01T07:35:18.782Z,9.30
2018-11-01T07:37:54.895Z,9.40
2018-11-01T07:40:26.347Z,9.50
2018-11-01T07:43:00.555Z,9.60
2018-11-01T07:45:33.308Z,9.70
2018-11-01T07:52:04.916Z,9.90
2018-11-01T07:54:36.639Z,10.20
2018-11-01T07:57:08.668Z,10.30
2018-11-01T07:59:40.489Z,10.40
2018-11-01T08:02:12.787Z,10.60
2018-11-01T08:04:44.503Z,10.70
2018-11-01T08:07:16.074Z,10.80
2018-11-01T08:09:47.908Z,10.90
2018-11-01T08:12:20.314Z,11.00
2018-11-01T08:14:51.997Z,11.10
2018-11-01T08:17:23.829Z,11.20
2018-11-01T08:19:56.328Z,11.30
2018-11-01T08:22:28.068Z,11.50
2018-11-01T08:24:59.788Z,11.60
2018-11-01T08:27:31.605Z,11.70
2018-11-01T08:30:03.180Z,11.80
2018-11-01T08:32:35.020Z,11.90
2018-11-01T08:35:06.801Z,12.00
2018-11-01T08:37:38.765Z,12.10
2018-11-01T08:40:11.565Z,12.20
2018-11-01T08:42:43.527Z,12.30
2018-11-01T08:45:15.898Z,12.30
2018-11-01T08:47:47.655Z,12.40
2018-11-01T08:52:55.631Z,12.60
2018-11-01T08:55:27.476Z,12.70
2018-11-01T08:57:59.704Z,12.80
2018-11-01T09:00:31.941Z,12.90
2018-11-01T09:03:03.826Z,12.90
2018-11-01T09:05:35.930Z,13.00
2018-11-01T09:08:08.309Z,13.10
2018-11-01T09:10:40.339Z,13.30
2018-11-01T09:13:12.032Z,13.30
2018-11-01T09:15:43.656Z,13.40
2018-11-01T09:18:15.368Z,13.40
2018-11-01T09:20:47.837Z,13.40
2018-11-01T09:23:19.440Z,13.50
2018-11-01T09:25:52.471Z,13.50
2018-11-01T09:28:24.197Z,13.60
2018-11-01T09:30:57.566Z,13.70
2018-11-01T09:33:30.159Z,13.80
2018-11-01T09:36:06.338Z,13.90
2018-11-01T09:38:37.965Z,14.00
2018-11-01T09:41:10.134Z,14.20
2018-11-01T09:43:42.342Z,14.10
2018-11-01T09:46:25.186Z,14.20
2018-11-01T09:48:56.772Z,14.30
2018-11-01T09:51:29.503Z,14.40
2018-11-01T09:54:01.521Z,14.40
2018-11-01T09:56:33.407Z,14.50
2018-11-01T09:59:07.036Z,14.60
2018-11-01T10:01:39.145Z,14.70
2018-11-01T10:04:11.206Z,14.80
2018-11-01T10:06:43.316Z,15.00
2018-11-01T10:09:14.825Z,15.10
2018-11-01T10:14:22.504Z,15.40
2018-11-01T10:16:54.290Z,15.50
2018-11-01T10:19:25.747Z,15.60
2018-11-01T10:21:57.200Z,15.70
2018-11-01T10:24:29.081Z,15.80
2018-11-01T10:27:00.974Z,15.80
2018-11-01T10:29:33.478Z,15.90
2018-11-01T10:32:12.820Z,15.90
2018-11-01T10:34:44.637Z,15.90
2018-11-01T10:37:16.361Z,16.00
2018-11-01T10:39:48.222Z,16.00
2018-11-01T10:42:20.326Z,16.10
2018-11-01T10:44:52.258Z,16.10
2018-11-01T10:47:23.865Z,16.10
2018-11-01T10:49:55.290Z,16.10
2018-11-01T10:52:30.556Z,16.20
2018-11-01T10:55:03.437Z,16.30
2018-11-01T10:57:35.036Z,16.40
2018-11-01T11:00:07.500Z,16.50
2018-11-01T11:02:41.347Z,16.70
2018-11-01T11:05:12.994Z,16.80
2018-11-01T11:07:44.735Z,17.00
2018-11-01T11:10:16.586Z,17.20
2018-11-01T11:12:48.339Z,17.40
2018-11-01T11:15:20.155Z,17.50
2018-11-01T11:17:52.226Z,17.60
2018-11-01T11:20:24.320Z,17.70
2018-11-01T11:22:56.382Z,17.80
2018-11-01T11:28:04.873Z,17.80
2018-11-01T11:30:38.009Z,17.90
2018-11-01T11:33:10.246Z,18.00
2018-11-01T11:35:41.985Z,18.20
2018-11-01T11:38:14.288Z,18.20
2018-11-01T11:40:46.319Z,18.40
2018-11-01T11:43:18.629Z,18.40
2018-11-01T11:45:50.518Z,18.70
2018-11-01T11:48:22.316Z,19.30
2018-11-01T11:50:54.051Z,20.10
2018-11-01T11:53:26.096Z,20.70
2018-11-01T11:55:58.477Z,21.10
2018-11-01T11:58:30.381Z,21.20
2018-11-01T12:01:01.933Z,21.70
2018-11-01T12:03:37.563Z,22.40
2018-11-01T12:06:10.067Z,23.30
2018-11-01T12:08:41.818Z,24.00
2018-11-01T12:11:13.616Z,24.30
2018-11-01T12:13:45.939Z,24.50
2018-11-01T12:16:18.335Z,24.50
2018-11-01T12:18:50.213Z,24.60
2018-11-01T12:21:22.507Z,24.50
2018-11-01T12:23:54.211Z,24.20
2018-11-01T12:26:25.958Z,23.60
2018-11-01T12:28:57.707Z,23.50
2018-11-01T12:38:59.529Z,23.10
2018-11-01T12:41:31.170Z,23.60
2018-11-01T12:44:03.490Z,23.70
2018-11-01T12:46:36.123Z,23.50
2018-11-01T12:49:08.264Z,23.60
2018-11-01T12:51:40.762Z,23.50
2018-11-01T12:54:12.673Z,23.50
2018-11-01T12:56:44.627Z,23.30
2018-11-01T12:59:19.069Z,23.20
2018-11-01T13:01:53.760Z,23.20
2018-11-01T13:07:01.844Z,23.10
2018-11-01T13:09:33.521Z,23.10
2018-11-01T13:12:05.501Z,22.90
2018-11-01T13:14:37.645Z,22.60
2018-11-01T13:17:10.122Z,22.40
2018-11-01T13:19:42.188Z,22.30
2018-11-01T13:22:14.175Z,22.20
2018-11-01T13:24:46.496Z,22.00
2018-11-01T13:27:18.310Z,21.90
2018-11-01T13:29:50.115Z,21.90
2018-11-01T13:32:22.318Z,21.80
2018-11-01T13:34:54.444Z,21.60
2018-11-01T13:37:26.183Z,21.50
2018-11-01T13:39:57.862Z,21.40
2018-11-01T13:42:29.833Z,21.30
2018-11-01T13:45:01.448Z,21.20
2018-11-01T13:47:33.207Z,21.10
2018-11-01T13:50:05.287Z,21.00
2018-11-01T13:52:36.917Z,20.80
2018-11-01T13:55:10.629Z,20.70
2018-11-01T13:57:42.577Z,20.60
2018-11-01T14:00:15.984Z,20.50
2018-11-01T14:02:48.627Z,20.30
2018-11-01T14:05:20.138Z,20.40
2018-11-01T14:07:53.290Z,20.50
2018-11-01T14:10:24.959Z,20.60
2018-11-01T14:12:57.133Z,20.60
2018-11-01T14:15:28.814Z,20.60
2018-11-01T14:20:37.098Z,20.50
2018-11-01T14:25:48.209Z,20.40
2018-11-01T14:28:19.938Z,20.30
2018-11-01T14:30:51.902Z,20.20
2018-11-01T14:33:24.606Z,20.10
2018-11-01T14:35:56.536Z,20.10
2018-11-01T14:38:28.441Z,20.00
2018-11-01T14:41:00.197Z,20.00
2018-11-01T14:43:31.745Z,19.90
2018-11-01T14:46:03.797Z,19.80
2018-11-01T14:48:35.351Z,19.70
2018-11-01T14:51:07.092Z,19.50
2018-11-01T14:53:39.388Z,19.40
2018-11-01T14:56:12.745Z,19.30
2018-11-01T14:58:45.932Z,19.20
2018-11-01T15:01:16.495Z,19.00
2018-11-01T15:03:48.654Z,18.90
2018-11-01T15:06:20.456Z,18.80
2018-11-01T15:08:52.246Z,18.70
2018-11-01T15:11:24.253Z,18.60
2018-11-01T15:13:56.022Z,18.50
2018-11-01T15:16:27.778Z,18.50
2018-11-01T15:19:02.257Z,18.40
2018-11-01T15:21:33.765Z,18.30
2018-11-01T15:24:05.670Z,18.30
2018-11-01T15:26:37.482Z,18.30
2018-11-01T15:29:09.774Z,18.20
2018-11-01T15:31:41.730Z,18.10
2018-11-01T15:34:13.479Z,18.00
2018-11-01T15:36:45.253Z,17.90
2018-11-01T15:39:17.007Z,17.90
2018-11-01T15:41:48.590Z,17.90
2018-11-01T15:44:20.246Z,17.80
2018-11-01T15:46:53.604Z,17.80
2018-11-01T15:50:32.138Z,17.80
2018-11-01T15:53:03.751Z,17.70
2018-11-01T15:55:35.919Z,17.60
2018-11-01T15:58:08.173Z,17.50
2018-11-01T16:00:39.921Z,17.40
2018-11-01T16:03:12.058Z,17.30
2018-11-01T16:05:43.976Z,17.20
2018-11-01T16:10:52.527Z,17.10
2018-11-01T16:13:24.382Z,17.00
2018-11-01T16:15:56.210Z,17.00
2018-11-01T16:18:28.135Z,17.00
2018-11-01T16:21:00.853Z,16.90
2018-11-01T16:23:33.395Z,16.90
2018-11-01T16:26:06.245Z,16.90
2018-11-01T16:28:38.434Z,16.80
2018-11-01T16:31:10.061Z,16.80
2018-11-01T16:36:17.963Z,16.70
2018-11-01T16:38:49.942Z,16.70
2018-11-01T16:41:21.706Z,16.70
2018-11-01T16:43:53.309Z,16.70
2018-11-01T16:46:24.889Z,16.70
2018-11-01T16:48:56.977Z,16.70
2018-11-01T16:51:29.247Z,16.70
2018-11-01T16:54:01.381Z,16.70
2018-11-01T16:56:33.000Z,16.60
2018-11-01T16:59:04.916Z,16.60
2018-11-01T17:01:37.536Z,16.60
2018-11-01T17:04:09.397Z,16.50
2018-11-01T17:06:41.173Z,16.40
2018-11-01T17:09:13.588Z,16.40
2018-11-01T17:11:45.541Z,16.40
2018-11-01T17:14:18.640Z,16.40
2018-11-01T17:16:50.338Z,16.40
2018-11-01T17:19:22.052Z,16.40
2018-11-01T17:21:53.804Z,16.30
2018-11-01T17:24:27.041Z,16.40
2018-11-01T17:26:58.894Z,16.30
2018-11-01T17:29:30.383Z,16.30
2018-11-01T17:32:02.366Z,16.30
2018-11-01T17:34:33.940Z,16.20
2018-11-01T17:37:06.964Z,16.20
2018-11-01T17:39:39.001Z,16.20
2018-11-01T17:42:10.701Z,16.20
2018-11-01T17:44:42.380Z,16.20
2018-11-01T17:47:14.990Z,16.20
2018-11-01T17:49:47.303Z,16.20
2018-11-01T17:52:19.654Z,16.20
2018-11-01T17:54:52.014Z,16.20
2018-11-01T17:57:24.063Z,16.20
2018-11-01T17:59:55.759Z,16.20
2018-11-01T18:02:28.190Z,16.20
2018-11-01T18:04:59.744Z,16.20
2018-11-01T18:10:09.348Z,16.20
2018-11-01T18:12:41.336Z,16.20
2018-11-01T18:15:13.761Z,16.20
2018-11-01T18:17:45.395Z,16.20
2018-11-01T18:20:17.287Z,16.20
2018-11-01T18:22:49.185Z,16.20
2018-11-01T18:25:20.960Z,16.20
2018-11-01T18:27:52.607Z,16.30
2018-11-01T18:30:24.905Z,16.30
2018-11-01T18:32:56.721Z,16.20
2018-11-01T18:35:28.393Z,16.10
2018-11-01T18:40:36.450Z,15.80
2018-11-01T18:43:08.402Z,15.70
2018-11-01T18:45:40.242Z,15.80
2018-11-01T18:48:11.929Z,15.80
2018-11-01T18:50:43.907Z,15.90
2018-11-01T18:53:17.424Z,15.90
2018-11-01T18:55:49.761Z,15.90
2018-11-01T18:58:22.043Z,15.90
2018-11-01T19:00:54.908Z,16.00
2018-11-01T19:03:29.443Z,16.10
2018-11-01T19:06:01.719Z,16.10
2018-11-01T19:08:34.184Z,16.20
2018-11-01T19:11:06.666Z,16.20
2018-11-01T19:13:38.803Z,16.20
2018-11-01T19:16:10.788Z,16.30
2018-11-01T19:18:43.385Z,16.30
2018-11-01T19:21:16.421Z,16.30
2018-11-01T19:23:48.215Z,16.40
2018-11-01T19:26:20.105Z,16.40
2018-11-01T19:28:51.619Z,16.40
2018-11-01T19:31:23.477Z,16.40
2018-11-01T19:33:56.083Z,16.40
2018-11-01T19:36:27.650Z,16.30
2018-11-01T19:38:59.722Z,16.30
2018-11-01T19:41:31.371Z,16.30
2018-11-01T19:44:02.887Z,16.20
2018-11-01T19:46:34.571Z,16.20
2018-11-01T19:49:06.515Z,16.20
2018-11-01T19:51:38.168Z,16.30
2018-11-01T19:54:09.860Z,16.30
2018-11-01T19:56:41.862Z,16.30
2018-11-01T19:59:13.716Z,16.30
2018-11-01T20:01:45.533Z,16.30
2018-11-01T20:04:17.581Z,16.30
2018-11-01T20:06:49.481Z,16.30
2018-11-01T20:09:21.692Z,16.20
2018-11-01T20:11:54.400Z,16.20
2018-11-01T20:14:26.102Z,16.20
2018-11-01T20:16:57.694Z,16.20
2018-11-01T20:19:29.591Z,16.20
2018-11-01T20:22:01.372Z,16.20
2018-11-01T20:24:36.510Z,16.20
2018-11-01T20:27:09.743Z,16.20
2018-11-01T20:29:41.330Z,16.20
2018-11-01T20:32:13.254Z,16.20
2018-11-01T20:34:45.060Z,16.20
2018-11-01T20:37:16.820Z,16.20
2018-11-01T20:39:48.589Z,16.20
2018-11-01T20:42:21.027Z,16.20
2018-11-01T20:44:52.929Z,16.30
2018-11-01T20:47:24.767Z,16.30
2018-11-01T20:49:56.715Z,16.30
2018-11-01T20:52:28.524Z,16.30
2018-11-01T20:55:01.018Z,16.40
2018-11-01T20:57:33.210Z,16.50
2018-11-01T21:00:05.126Z,16.50
2018-11-01T21:02:37.524Z,16.50
2018-11-01T21:05:09.437Z,16.60
2018-11-01T21:07:41.696Z,16.60
2018-11-01T21:10:13.412Z,16.70
2018-11-01T21:12:45.184Z,16.70
2018-11-01T21:15:17.524Z,16.70
2018-11-01T21:17:49.448Z,16.80
2018-11-01T21:20:21.253Z,16.80
2018-11-01T21:22:52.862Z,16.80
2018-11-01T21:25:24.593Z,16.70
2018-11-01T21:27:56.417Z,16.70
2018-11-01T21:30:28.783Z,16.70
2018-11-01T21:39:37.355Z,16.70
2018-11-01T21:44:45.520Z,16.60
2018-11-01T21:47:17.210Z,16.60
2018-11-01T21:49:48.981Z,16.60
2018-11-01T21:52:21.456Z,16.60
2018-11-01T21:54:54.144Z,16.70
2018-11-01T21:57:26.002Z,16.70
2018-11-01T21:59:57.663Z,16.80
2018-11-01T22:02:29.605Z,16.80
2018-11-01T22:05:01.251Z,16.80
2018-11-01T22:07:34.081Z,16.70
2018-11-01T22:10:06.335Z,16.60
2018-11-01T22:12:38.876Z,16.50
2018-11-01T22:15:12.315Z,16.50
2018-11-01T22:17:44.909Z,16.60
2018-11-01T22:20:16.847Z,16.60
2018-11-01T22:22:48.293Z,16.70
2018-11-01T22:25:21.375Z,16.70
2018-11-01T22:27:53.066Z,16.70
2018-11-01T22:30:25.365Z,16.60
2018-11-01T22:32:57.166Z,16.60
2018-11-01T22:35:28.911Z,16.60
2018-11-01T22:38:00.826Z,16.50
2018-11-01T22:40:33.441Z,16.60
2018-11-01T22:43:05.486Z,16.60
2018-11-01T22:45:37.531Z,16.60
2018-11-01T22:48:16.026Z,16.60
2018-11-01T22:50:47.870Z,16.70
2018-11-01T22:53:20.335Z,16.70
2018-11-01T22:55:52.124Z,16.70
2018-11-01T22:58:23.947Z,16.70
2018-11-01T23:00:56.067Z,16.70
2018-11-01T23:06:04.647Z,16.70
2018-11-01T23:09:08.979Z,16.70
2018-11-01T23:14:17.716Z,16.70
2018-11-01T23:16:50.242Z,16.70
2018-11-01T23:19:21.897Z,16.80
2018-11-01T23:21:54.419Z,16.80
2018-11-01T23:24:26.777Z,16.90
2018-11-01T23:26:58.874Z,17.00
2018-11-01T23:29:30.795Z,17.00
2018-11-01T23:32:02.613Z,17.10
2018-11-01T23:34:35.204Z,17.10
2018-11-01T23:37:12.446Z,17.10
2018-11-01T23:39:49.465Z,17.10
2018-11-01T23:42:26.537Z,17.20
2018-11-01T23:45:03.325Z,17.10
2018-11-01T23:47:40.077Z,17.10
2018-11-01T23:50:19.442Z,17.10
2018-11-01T23:52:53.046Z,17.10
2018-11-01T23:55:24.988Z,17.10
2018-11-01T23:57:57.139Z,17.00
